Koeltztown, Missouri
Current Conditions -  °F | °C
As of 2:53 PM on Monday 24 Nov 2014 (Local Time) from KJEF Reporting Station
Overcast Overcast  
Wind Chill: 34°   Ceiling: 4200
Heat Index: 42°   Visibility: 10mi
Dew Point: 26°   Wind: 16mph
Humidity: 53%   Direction: 280°W
Pressure: 29.81"   Gusts: 24mph
Location:  38.32°N, 92.04°W
Report Text: KJEF 242053Z 28014G21KT 10SM OVC042 06/M03 A2981 RMK AO2 SLP088 T00561033 53022
Loading
Personal Weather Stations






























Interactive Weather Map New forecast layout! Learn more

10-Day Weather Forecast

Advertisements
Track Severe Weather on mobile